Apple Valley, Utah
Current Conditions -  °F | °C
As of 4:55 AM on Monday 22 Dec 2014 (Local Time) from KAZC Reporting Station
Clear Clear  
Wind Chill: 29°   Ceiling: Unl
Heat Index: 29°   Visibility: 10mi
Dew Point: 28°   Wind: 0mph
Humidity: 97%   Direction: NA
Pressure: 30.11"   Gusts: NA
Location:  37.2274°N, 113.139°W
Report Text: KAZC 221155Z AUTO 00000KT 10SM CLR M02/M02 A3011 RMK AO2 T10171021 10208 21119
Loading
Personal Weather Stations






























Interactive Weather Map New forecast layout! Learn more

10-Day Weather Forecast

Advertisements
Track Severe Weather on mobile